Pioneertown, California
Current Conditions -  °F | °C
As of 2:55 AM on Friday 28 Nov 2014 (Local Time) from KL35 Reporting Station
Clear Clear  
Wind Chill: 27°   Ceiling: Unl
Heat Index: 27°   Visibility: 10mi
Dew Point: 12°   Wind: 0mph
Humidity: 55%   Direction: NA
Pressure: 30.3"   Gusts: NA
Location:  34.16°N, 116.5°W
Report Text: KL35 281055Z AUTO 00000KT 10SM CLR M03/M11 A3030 RMK AO2
Loading
Personal Weather Stations






























Interactive Weather Map New forecast layout! Learn more

10-Day Weather Forecast

Advertisements
Track Severe Weather on mobile